Time;durP1;ratioP1;P1;durP2;ratioP2;P2;SDS_P1;SDS_P2;PMS_P1;PMS_P2;Temp;Humidity;BMP_temperature;BMP_pressure;BME280_temperature;BME280_humidity;BME280_pressure;Samples;Min_cycle;Max_cycle;Signal;HPM_P1;HPM_P2
2023/09/07 00:00:42;;;;;;;6.03;5.43;;;;;14.90;97601.00;;;;4987943;28;20218;-66
2023/09/07 00:03:33;;;;;;;5.70;5.07;;;;;14.90;97602.00;;;;4986495;28;20588;-66
2023/09/07 00:06:22;;;;;;;7.33;4.90;;;;;14.70;97592.00;;;;4989494;28;20217;-67
2023/09/07 00:09:13;;;;;;;6.17;5.00;;;;;14.40;97595.00;;;;4984397;28;20698;-67
2023/09/07 00:12:02;;;;;;;7.73;6.13;;;;;14.60;97600.00;;;;4983142;28;20206;-66
2023/09/07 00:14:51;;;;;;;7.67;5.37;;;;;14.70;97586.00;;;;4981453;28;20222;-67
2023/09/07 00:17:40;;;;;;;8.63;5.00;;;;;14.50;97607.00;;;;4989537;28;20203;-67
2023/09/07 00:20:31;;;;;;;6.93;5.00;;;;;14.50;97600.00;;;;4981792;28;20636;-67
2023/09/07 00:23:20;;;;;;;7.33;4.93;;;;;14.60;97591.00;;;;4986509;28;20214;-67
2023/09/07 00:26:12;;;;;;;6.07;5.23;;;;;14.60;97598.00;;;;4989624;28;20206;-67
2023/09/07 00:29:01;;;;;;;6.73;5.67;;;;;14.50;97588.00;;;;4989478;28;20226;-66
2023/09/07 00:31:50;;;;;;;6.53;5.93;;;;;14.30;97583.00;;;;4982047;28;20210;-67
2023/09/07 00:34:40;;;;;;;5.00;4.53;;;;;14.30;97587.00;;;;4987965;28;20615;-67
2023/09/07 00:37:30;;;;;;;13.00;5.70;;;;;14.40;97591.00;;;;4988191;28;20211;-67
2023/09/07 00:40:19;;;;;;;10.40;5.43;;;;;14.10;97586.00;;;;4988202;28;20585;-66
2023/09/07 00:43:08;;;;;;;5.50;4.90;;;;;14.00;97578.00;;;;4983420;28;20202;-66
2023/09/07 00:45:57;;;;;;;6.73;5.03;;;;;14.10;97577.00;;;;4982484;28;20581;-66
2023/09/07 00:48:46;;;;;;;6.07;5.40;;;;;14.20;97573.00;;;;4982294;28;20241;-67
2023/09/07 00:51:35;;;;;;;6.07;5.57;;;;;14.30;97576.00;;;;4983259;28;20230;-66
2023/09/07 00:54:26;;;;;;;9.17;5.13;;;;;14.20;97569.00;;;;4982112;28;20706;-67
2023/09/07 00:57:15;;;;;;;7.10;5.77;;;;;13.90;97566.00;;;;4979643;28;20218;-67
2023/09/07 01:00:05;;;;;;;6.13;4.43;;;;;13.90;97567.00;;;;4981628;28;20207;-66
2023/09/07 01:02:55;;;;;;;6.80;5.43;;;;;14.40;97574.00;;;;4977944;28;20213;-67
2023/09/07 01:05:51;;;;;;;5.10;4.50;;;;;14.20;97572.00;;;;4978824;28;20230;-67
2023/09/07 01:08:44;;;;;;;6.60;6.00;;;;;14.20;97563.00;;;;4987077;28;20214;-67
2023/09/07 01:11:39;;;;;;;7.80;6.07;;;;;13.80;97560.00;;;;4978809;28;20204;-67
2023/09/07 01:14:28;;;;;;;6.10;5.50;;;;;14.20;97564.00;;;;4978659;28;20729;-67
2023/09/07 01:17:17;;;;;;;8.60;5.37;;;;;14.30;97565.00;;;;4983661;28;20226;-66
2023/09/07 01:20:09;;;;;;;7.43;6.53;;;;;14.40;97562.00;;;;4983350;28;20199;-67
2023/09/07 01:23:00;;;;;;;5.03;4.53;;;;;14.30;97561.00;;;;4982536;28;20213;-66
2023/09/07 01:25:50;;;;;;;7.23;4.77;;;;;14.10;97563.00;;;;4981313;28;20249;-67
2023/09/07 01:28:39;;;;;;;5.40;4.67;;;;;14.20;97566.00;;;;4982297;28;20203;-67
2023/09/07 01:31:28;;;;;;;5.73;5.13;;;;;14.00;97558.00;;;;4984535;28;20206;-67
2023/09/07 01:34:17;;;;;;;6.20;5.00;;;;;13.90;97559.00;;;;4987092;28;20282;-67
2023/09/07 01:37:06;;;;;;;5.90;4.70;;;;;13.80;97562.00;;;;4986312;28;20203;-66
2023/09/07 01:39:57;;;;;;;7.47;5.30;;;;;13.90;97547.00;;;;4981283;28;20207;-67
2023/09/07 01:42:46;;;;;;;5.67;5.07;;;;;13.80;97549.00;;;;4980609;28;20615;-66
2023/09/07 01:45:35;;;;;;;5.73;5.20;;;;;13.80;97550.00;;;;4986171;28;20223;-66
2023/09/07 01:48:24;;;;;;;6.20;5.23;;;;;13.80;97552.00;;;;4981585;28;20199;-67
2023/09/07 01:51:13;;;;;;;8.07;5.53;;;;;13.80;97551.00;;;;4980765;28;20207;-67
2023/09/07 01:54:02;;;;;;;6.20;5.60;;;;;13.70;97545.00;;;;4980120;28;20226;-65
2023/09/07 01:56:52;;;;;;;6.37;4.93;;;;;13.60;97546.00;;;;4983889;28;20206;-67
2023/09/07 01:59:41;;;;;;;7.20;5.00;;;;;13.60;97553.00;;;;4980983;28;20213;-66
2023/09/07 02:02:30;;;;;;;5.60;5.10;;;;;13.80;97550.00;;;;4987806;28;20624;-67
2023/09/07 02:05:21;;;;;;;6.87;5.83;;;;;13.70;97540.00;;;;4988369;28;20227;-67
2023/09/07 02:08:10;;;;;;;7.77;5.33;;;;;13.70;97547.00;;;;4982709;28;20203;-66
2023/09/07 02:10:59;;;;;;;5.90;5.30;;;;;13.50;97548.00;;;;4981200;28;20203;-66
2023/09/07 02:13:49;;;;;;;6.63;5.00;;;;;13.30;97541.00;;;;4980879;28;20223;-66
2023/09/07 02:16:38;;;;;;;5.23;4.70;;;;;13.40;97539.00;;;;4975034;28;20192;-67
2023/09/07 02:19:27;;;;;;;5.73;5.23;;;;;13.60;97545.00;;;;4981373;28;20245;-67
2023/09/07 02:22:16;;;;;;;5.97;5.33;;;;;13.60;97544.00;;;;4991978;28;20206;-67
2023/09/07 02:25:06;;;;;;;6.23;4.97;;;;;13.40;97544.00;;;;4976395;28;20231;-66
2023/09/07 02:27:55;;;;;;;7.93;5.87;;;;;13.10;97539.00;;;;4981263;28;20194;-65
2023/09/07 02:30:46;;;;;;;5.63;5.00;;;;;13.10;97542.00;;;;4983751;28;20241;-66
2023/09/07 02:33:35;;;;;;;5.93;5.23;;;;;13.50;97545.00;;;;4984816;28;20750;-67
2023/09/07 02:36:24;;;;;;;6.13;5.47;;;;;13.80;97547.00;;;;4988878;28;20203;-66
2023/09/07 02:39:13;;;;;;;6.90;6.03;;;;;13.80;97549.00;;;;4980280;28;20199;-65
2023/09/07 02:42:02;;;;;;;5.83;5.23;;;;;13.70;97549.00;;;;4981169;28;20207;-66
2023/09/07 02:44:53;;;;;;;6.57;5.80;;;;;13.50;97543.00;;;;4986575;28;20226;-66
2023/09/07 02:47:43;;;;;;;5.97;4.90;;;;;13.50;97550.00;;;;4980303;28;20698;-66
2023/09/07 02:50:33;;;;;;;7.97;5.80;;;;;13.70;97536.00;;;;4979764;28;20579;-66
2023/09/07 02:53:23;;;;;;;10.37;5.23;;;;;13.50;97543.00;;;;4979895;28;20215;-66
2023/09/07 02:56:12;;;;;;;5.40;4.90;;;;;13.10;97534.00;;;;4981695;28;20203;-66
2023/09/07 02:59:01;;;;;;;6.43;5.83;;;;;12.80;97539.00;;;;4978919;28;20366;-66
2023/09/07 03:01:50;;;;;;;7.00;5.70;;;;;13.00;97544.00;;;;4973171;28;20204;-66
2023/09/07 03:04:41;;;;;;;7.37;6.37;;;;;13.10;97533.00;;;;4980357;28;20596;-66
2023/09/07 03:07:33;;;;;;;6.10;5.50;;;;;13.20;97532.00;;;;4982537;28;20691;-65
2023/09/07 03:10:22;;;;;;;8.93;6.30;;;;;13.30;97542.00;;;;4982616;28;20198;-66
2023/09/07 03:13:11;;;;;;;7.37;6.27;;;;;13.30;97537.00;;;;4979950;28;20213;-66
2023/09/07 03:16:00;;;;;;;6.23;5.63;;;;;13.20;97539.00;;;;4981009;28;20202;-67
2023/09/07 03:18:49;;;;;;;6.00;5.30;;;;;13.00;97540.00;;;;4980234;28;20200;-67
2023/09/07 03:21:40;;;;;;;6.73;5.60;;;;;12.80;97545.00;;;;4979979;28;20230;-66
2023/09/07 03:24:29;;;;;;;7.63;6.10;;;;;13.00;97539.00;;;;4978907;28;20703;-66
2023/09/07 03:27:18;;;;;;;7.07;5.77;;;;;12.90;97538.00;;;;4980786;28;20222;-65
2023/09/07 03:30:08;;;;;;;11.23;5.87;;;;;13.10;97535.00;;;;4980244;28;20207;-67
2023/09/07 03:32:57;;;;;;;6.37;5.63;;;;;13.00;97533.00;;;;4981555;28;20226;-67
2023/09/07 03:35:47;;;;;;;6.60;5.90;;;;;12.80;97534.00;;;;4977522;28;20208;-67
2023/09/07 03:38:37;;;;;;;6.73;5.80;;;;;12.90;97528.00;;;;4978670;28;20229;-66
2023/09/07 03:41:30;;;;;;;12.40;6.73;;;;;13.00;97533.00;;;;4975050;28;20542;-66
2023/09/07 03:44:19;;;;;;;7.53;6.23;;;;;12.90;97531.00;;;;4981111;28;20240;-67
2023/09/07 03:47:09;;;;;;;8.13;6.90;;;;;13.00;97537.00;;;;4979313;28;20219;-66
2023/09/07 03:49:58;;;;;;;7.40;6.27;;;;;13.20;97537.00;;;;4983112;28;20211;-66
2023/09/07 03:52:47;;;;;;;8.23;6.67;;;;;13.40;97543.00;;;;4977353;28;20222;-65
2023/09/07 03:55:43;;;;;;;9.23;6.90;;;;;13.60;97544.00;;;;4977944;28;20725;-65
2023/09/07 03:58:32;;;;;;;7.53;6.70;;;;;13.20;97544.00;;;;4979028;28;20207;-65
2023/09/07 04:01:21;;;;;;;6.63;5.90;;;;;13.10;97552.00;;;;4976737;28;20265;-67
2023/09/07 04:04:10;;;;;;;8.60;6.70;;;;;12.90;97545.00;;;;4975081;28;20227;-66
2023/09/07 04:06:59;;;;;;;7.73;6.43;;;;;12.80;97540.00;;;;4979137;28;20690;-65
2023/09/07 04:09:48;;;;;;;6.53;5.63;;;;;12.80;97535.00;;;;4979347;28;20203;-66
2023/09/07 04:12:39;;;;;;;7.03;6.33;;;;;12.70;97543.00;;;;4990797;28;20215;-68
2023/09/07 04:15:28;;;;;;;9.07;5.67;;;;;12.60;97547.00;;;;5032146;23;20235;-82
2023/09/07 04:18:17;;;;;;;6.83;6.07;;;;;12.50;97547.00;;;;5043787;28;20204;-82
2023/09/07 04:21:07;;;;;;;8.10;6.70;;;;;12.60;97542.00;;;;5046093;28;20724;-82
2023/09/07 04:23:56;;;;;;;7.83;5.83;;;;;12.80;97548.00;;;;5060479;28;20676;-81
2023/09/07 04:26:45;;;;;;;6.57;5.93;;;;;12.40;97552.00;;;;5051721;28;20341;-81
2023/09/07 04:29:35;;;;;;;6.33;5.63;;;;;12.50;97555.00;;;;5050485;28;20208;-82
2023/09/07 04:32:24;;;;;;;7.33;6.27;;;;;12.60;97557.00;;;;5046726;28;20216;-82
2023/09/07 04:35:13;;;;;;;10.30;6.20;;;;;12.80;97553.00;;;;5048976;28;20208;-82
2023/09/07 04:38:02;;;;;;;7.90;6.43;;;;;13.10;97564.00;;;;5047410;28;20200;-80
2023/09/07 04:40:51;;;;;;;11.87;7.00;;;;;13.30;97562.00;;;;5047297;28;20615;-81
2023/09/07 04:43:42;;;;;;;7.80;7.00;;;;;13.40;97558.00;;;;5049189;28;20582;-82
2023/09/07 04:46:33;;;;;;;10.70;7.83;;;;;13.40;97563.00;;;;5048701;28;20220;-81
2023/09/07 04:49:22;;;;;;;10.70;6.47;;;;;13.30;97567.00;;;;5056631;28;20208;-80
2023/09/07 04:52:11;;;;;;;8.90;6.90;;;;;13.20;97568.00;;;;5055483;28;20231;-82
2023/09/07 04:55:00;;;;;;;9.77;7.50;;;;;12.90;97562.00;;;;5058917;28;20598;-80
2023/09/07 04:57:49;;;;;;;9.70;7.63;;;;;12.70;97566.00;;;;5052617;28;20193;-82
2023/09/07 05:00:38;;;;;;;11.13;7.43;;;;;12.60;97563.00;;;;5047279;28;20224;-81
2023/09/07 05:03:28;;;;;;;11.00;7.53;;;;;12.70;97564.00;;;;5052369;28;20207;-82
2023/09/07 05:06:17;;;;;;;9.70;7.77;;;;;12.90;97561.00;;;;5053888;28;20681;-81
2023/09/07 05:09:07;;;;;;;9.87;7.40;;;;;13.00;97564.00;;;;5056396;28;20620;-81
2023/09/07 05:11:56;;;;;;;12.27;7.83;;;;;13.10;97559.00;;;;5054576;28;20240;-80
2023/09/07 05:14:45;;;;;;;9.63;7.30;;;;;13.20;97565.00;;;;5061460;28;20598;-81
2023/09/07 05:17:34;;;;;;;7.30;6.47;;;;;13.10;97566.00;;;;5048938;28;20619;-81
2023/09/07 05:20:24;;;;;;;11.97;7.00;;;;;13.20;97571.00;;;;5057523;28;20212;-80
2023/09/07 05:23:15;;;;;;;10.77;6.87;;;;;13.10;97576.00;;;;5054723;28;20591;-82
2023/09/07 05:26:04;;;;;;;7.83;6.67;;;;;13.00;97576.00;;;;5053989;28;20212;-82
2023/09/07 05:28:53;;;;;;;6.50;5.77;;;;;13.30;97574.00;;;;5051429;28;20684;-81
2023/09/07 05:31:42;;;;;;;6.70;5.63;;;;;13.40;97572.00;;;;5051829;28;20692;-82
2023/09/07 05:34:31;;;;;;;11.90;6.60;;;;;13.60;97575.00;;;;5050321;28;20208;-82
2023/09/07 05:37:22;;;;;;;8.10;6.43;;;;;13.80;97578.00;;;;5054309;28;20205;-81
2023/09/07 05:40:12;;;;;;;9.13;6.47;;;;;14.00;97583.00;;;;5053261;28;20625;-80
2023/09/07 05:43:01;;;;;;;8.30;6.63;;;;;14.00;97574.00;;;;5051712;28;20578;-80
2023/09/07 05:45:50;;;;;;;9.23;6.20;;;;;14.10;97590.00;;;;5048191;28;20197;-82
2023/09/07 05:48:40;;;;;;;8.73;7.27;;;;;14.30;97592.00;;;;5053068;28;20239;-81
2023/09/07 05:51:29;;;;;;;12.83;7.50;;;;;14.60;97588.00;;;;5054314;28;20692;-81
2023/09/07 05:54:22;;;;;;;7.20;6.50;;;;;14.70;97585.00;;;;5050334;28;20215;-82
2023/09/07 05:57:11;;;;;;;9.73;7.13;;;;;14.60;97583.00;;;;5049896;28;20211;-82
2023/09/07 06:00:00;;;;;;;6.97;5.83;;;;;14.70;97588.00;;;;5050168;28;20204;-82
2023/09/07 06:02:49;;;;;;;8.77;6.77;;;;;14.70;97587.00;;;;5050740;28;20589;-80
2023/09/07 06:05:39;;;;;;;8.77;7.17;;;;;14.60;97584.00;;;;5047039;28;20223;-81
2023/09/07 06:08:28;;;;;;;10.07;8.13;;;;;14.90;97590.00;;;;5063661;28;20614;-81
2023/09/07 06:11:19;;;;;;;10.13;8.47;;;;;15.20;97583.00;;;;5053816;28;20228;-82
2023/09/07 06:14:08;;;;;;;10.03;7.63;;;;;15.40;97589.00;;;;5061784;28;20212;-82
2023/09/07 06:16:57;;;;;;;10.57;8.13;;;;;15.40;97591.00;;;;5055624;28;20201;-82
2023/09/07 06:19:46;;;;;;;8.57;7.37;;;;;15.50;97589.00;;;;5048792;28;20681;-82
2023/09/07 06:22:35;;;;;;;12.33;6.93;;;;;16.00;97606.00;;;;5049718;28;20208;-82
2023/09/07 06:25:24;;;;;;;11.77;8.33;;;;;16.10;97588.00;;;;5046610;28;20213;-82
2023/09/07 06:28:16;;;;;;;11.00;7.97;;;;;16.20;97590.00;;;;5048843;28;20237;-82
2023/09/07 06:31:05;;;;;;;10.67;7.57;;;;;16.40;97586.00;;;;5045294;28;20231;-82
2023/09/07 06:33:54;;;;;;;10.47;7.43;;;;;16.50;97598.00;;;;5048517;28;20205;-82
2023/09/07 06:36:43;;;;;;;9.30;7.87;;;;;16.80;97602.00;;;;5051491;28;20200;-82
2023/09/07 06:39:35;;;;;;;18.17;9.37;;;;;17.00;97590.00;;;;5050534;28;20204;-82
2023/09/07 06:42:24;;;;;;;11.37;7.23;;;;;17.00;97593.00;;;;5046309;28;20239;-81
2023/09/07 06:45:14;;;;;;;11.33;8.33;;;;;17.40;97601.00;;;;5046980;28;20717;-81
2023/09/07 06:48:04;;;;;;;10.33;8.13;;;;;17.60;97612.00;;;;5044813;28;20229;-81
2023/09/07 06:50:53;;;;;;;10.57;8.23;;;;;17.90;97602.00;;;;5046058;28;20348;-83
2023/09/07 06:53:42;;;;;;;10.73;8.47;;;;;18.00;97600.00;;;;5047376;28;20201;-81
2023/09/07 06:56:43;;;;;;;11.30;8.90;;;;;18.40;97606.00;;;;5048367;28;20208;-81
2023/09/07 06:59:32;;;;;;;13.00;8.70;;;;;18.60;97609.00;;;;5049894;28;20208;-83
2023/09/07 07:02:23;;;;;;;11.27;7.53;;;;;18.90;97613.00;;;;5050838;28;20442;-82
2023/09/07 07:05:11;;;;;;;16.37;7.87;;;;;19.00;97610.00;;;;5047534;28;20619;-81
2023/09/07 07:08:00;;;;;;;10.87;6.90;;;;;19.30;97610.00;;;;5049932;28;20228;-82
2023/09/07 07:10:50;;;;;;;11.10;7.50;;;;;19.20;97619.00;;;;5044755;28;20227;-80
2023/09/07 07:13:39;;;;;;;10.23;8.23;;;;;19.30;97610.00;;;;5048607;28;20586;-81
2023/09/07 07:16:28;;;;;;;11.93;7.47;;;;;19.60;97617.00;;;;5049632;28;20201;-80
2023/09/07 07:19:18;;;;;;;10.40;6.63;;;;;19.70;97619.00;;;;5049271;28;20205;-80
2023/09/07 07:22:07;;;;;;;14.57;8.30;;;;;19.90;97621.00;;;;5045618;28;20217;-82
2023/09/07 07:24:59;;;;;;;13.90;7.60;;;;;20.00;97622.00;;;;5047245;28;20263;-81
2023/09/07 07:27:48;;;;;;;11.67;7.63;;;;;20.10;97620.00;;;;5045498;28;20592;-82
2023/09/07 07:30:39;;;;;;;9.40;7.27;;;;;20.40;97625.00;;;;5051929;28;20231;-83
2023/09/07 07:33:28;;;;;;;10.60;7.63;;;;;20.60;97628.00;;;;5048212;28;20209;-80
2023/09/07 07:36:19;;;;;;;11.27;8.23;;;;;20.70;97618.00;;;;5042289;28;20661;-83
2023/09/07 07:39:08;;;;;;;13.70;7.70;;;;;20.80;97616.00;;;;5044145;28;20197;-82
2023/09/07 07:41:57;;;;;;;14.53;7.77;;;;;20.90;97619.00;;;;5048728;28;20224;-81
2023/09/07 07:44:46;;;;;;;8.77;7.53;;;;;21.20;97626.00;;;;5051776;28;20231;-82
2023/09/07 07:47:35;;;;;;;11.13;6.83;;;;;21.10;97621.00;;;;5041413;28;20351;-82
2023/09/07 07:50:24;;;;;;;11.10;7.40;;;;;21.40;97620.00;;;;5039631;28;20205;-81
2023/09/07 07:53:15;;;;;;;11.37;8.40;;;;;21.70;97616.00;;;;5053296;28;21165;-79
2023/09/07 07:56:04;;;;;;;11.47;6.93;;;;;21.80;97625.00;;;;5049375;28;20781;-83
2023/09/07 07:58:53;;;;;;;12.10;7.83;;;;;21.90;97616.00;;;;5053140;28;20201;-80
2023/09/07 08:01:42;;;;;;;12.73;7.13;;;;;21.90;97616.00;;;;5049640;28;20223;-82
2023/09/07 08:04:32;;;;;;;12.03;6.60;;;;;22.20;97617.00;;;;5039393;28;20280;-81
2023/09/07 08:07:21;;;;;;;13.17;7.00;;;;;22.30;97619.00;;;;5046122;28;20746;-81
2023/09/07 08:10:12;;;;;;;7.40;6.57;;;;;22.30;97617.00;;;;5040303;28;20237;-81
2023/09/07 08:13:01;;;;;;;10.07;6.30;;;;;22.50;97616.00;;;;5051493;28;20689;-81
2023/09/07 08:15:50;;;;;;;8.60;6.83;;;;;22.90;97616.00;;;;5050463;28;20219;-80
2023/09/07 08:18:40;;;;;;;9.43;6.10;;;;;22.90;97616.00;;;;5052007;28;20225;-81
2023/09/07 08:21:29;;;;;;;8.07;6.70;;;;;23.20;97620.00;;;;5046812;28;20224;-80
2023/09/07 08:24:19;;;;;;;10.53;7.00;;;;;23.40;97621.00;;;;5047299;28;20204;-80
2023/09/07 08:27:11;;;;;;;13.37;9.03;;;;;23.60;97618.00;;;;5046969;28;20857;-82
2023/09/07 08:30:00;;;;;;;11.40;6.80;;;;;23.80;97608.00;;;;5048209;28;20235;-81
2023/09/07 08:32:51;;;;;;;9.23;6.10;;;;;24.00;97618.00;;;;5053013;28;20702;-81
2023/09/07 08:35:43;;;;;;;9.30;5.60;;;;;23.90;97611.00;;;;5050946;28;20203;-80
2023/09/07 08:38:33;;;;;;;11.47;6.30;;;;;24.30;97613.00;;;;5047694;28;20227;-81
2023/09/07 08:41:22;;;;;;;17.87;5.87;;;;;24.30;97611.00;;;;5055980;28;20303;-83
2023/09/07 08:44:15;;;;;;;7.13;5.90;;;;;24.60;97615.00;;;;5054505;28;20584;-81
2023/09/07 08:47:05;;;;;;;8.13;5.37;;;;;24.90;97619.00;;;;5056151;28;20767;-80
2023/09/07 08:49:55;;;;;;;6.50;5.73;;;;;24.60;97620.00;;;;5052948;28;20232;-82
2023/09/07 08:52:45;;;;;;;5.43;4.50;;;;;24.50;97615.00;;;;5053349;28;20204;-81
2023/09/07 08:55:34;;;;;;;7.63;5.37;;;;;25.10;97609.00;;;;5051021;28;20216;-81
2023/09/07 08:58:23;;;;;;;6.80;4.97;;;;;25.50;97607.00;;;;5050942;28;20188;-83
2023/09/07 09:01:14;;;;;;;5.77;4.93;;;;;25.60;97614.00;;;;5048825;28;20229;-82
2023/09/07 09:04:03;;;;;;;6.13;4.53;;;;;25.90;97608.00;;;;5049646;28;20245;-81
2023/09/07 09:06:52;;;;;;;7.00;4.87;;;;;25.70;97609.00;;;;5056003;28;20590;-81
2023/09/07 09:09:41;;;;;;;4.73;3.97;;;;;25.90;97599.00;;;;5057751;28;20223;-81
2023/09/07 09:12:30;;;;;;;8.70;5.00;;;;;26.20;97607.00;;;;5048047;28;20604;-82
2023/09/07 09:15:19;;;;;;;5.67;4.53;;;;;26.00;97609.00;;;;5042922;28;20784;-81
2023/09/07 09:18:14;;;;;;;4.77;4.20;;;;;26.20;97601.00;;;;5047796;28;20738;-82
2023/09/07 09:21:03;;;;;;;6.07;3.97;;;;;26.70;97602.00;;;;5052918;28;20225;-81
2023/09/07 09:23:54;;;;;;;4.37;3.70;;;;;26.80;97601.00;;;;5050173;28;20215;-84
2023/09/07 09:26:43;;;;;;;7.83;3.87;;;;;27.00;97601.00;;;;5054325;28;20214;-82
2023/09/07 09:29:34;;;;;;;4.77;3.33;;;;;27.10;97597.00;;;;5052525;28;20225;-81
2023/09/07 09:32:24;;;;;;;6.00;3.00;;;;;27.10;97598.00;;;;5051654;28;20233;-83
2023/09/07 09:35:14;;;;;;;3.37;2.80;;;;;27.50;97605.00;;;;5051726;28;20210;-82
2023/09/07 09:38:04;;;;;;;3.10;2.80;;;;;27.70;97594.00;;;;5052941;28;20198;-82
2023/09/07 09:40:55;;;;;;;4.77;2.43;;;;;27.80;97595.00;;;;5043455;28;20603;-82
2023/09/07 09:43:45;;;;;;;6.73;2.50;;;;;28.00;97594.00;;;;5045941;28;20210;-82
2023/09/07 09:46:35;;;;;;;4.23;2.83;;;;;28.10;97600.00;;;;5045297;28;20698;-81
2023/09/07 09:49:26;;;;;;;3.27;2.93;;;;;28.20;97597.00;;;;5047951;28;20277;-81
2023/09/07 09:52:17;;;;;;;5.50;2.90;;;;;28.40;97595.00;;;;5049438;28;20278;-80
2023/09/07 09:55:07;;;;;;;3.30;3.00;;;;;28.50;97598.00;;;;5047242;28;20209;-79
2023/09/07 09:57:57;;;;;;;5.47;3.90;;;;;27.30;97587.00;;;;5049450;28;20215;-81
2023/09/07 10:00:48;;;;;;;4.30;3.20;;;;;27.30;97586.00;;;;5055470;28;20227;-80
2023/09/07 10:03:45;;;;;;;5.20;3.70;;;;;28.30;97590.00;;;;5056218;28;20214;-80
2023/09/07 10:06:35;;;;;;;5.00;3.00;;;;;28.60;97587.00;;;;5044905;28;20223;-81
2023/09/07 10:09:31;;;;;;;3.97;3.57;;;;;29.00;97584.00;;;;5043789;28;20243;-81
2023/09/07 10:12:29;;;;;;;4.40;3.47;;;;;29.30;97597.00;;;;5048547;28;20227;-81
2023/09/07 10:15:22;;;;;;;4.77;3.00;;;;;29.40;97594.00;;;;5047598;28;20257;-84
2023/09/07 10:18:13;;;;;;;4.10;3.43;;;;;29.80;97590.00;;;;5049238;28;20567;-83
2023/09/07 10:21:02;;;;;;;5.30;3.90;;;;;30.00;97593.00;;;;5049749;28;20225;-82
2023/09/07 10:23:55;;;;;;;6.40;3.10;;;;;30.10;97591.00;;;;5046364;28;20235;-82
2023/09/07 10:26:45;;;;;;;5.53;3.20;;;;;29.90;97592.00;;;;5051062;28;20655;-80
2023/09/07 10:29:43;;;;;;;3.87;3.33;;;;;28.90;97590.00;;;;5066974;23;20584;-69
2023/09/07 10:32:40;;;;;;;4.70;3.20;;;;;29.80;97584.00;;;;5068252;28;20198;-69
2023/09/07 10:35:31;;;;;;;4.23;2.80;;;;;30.00;97581.00;;;;5062372;28;20687;-69
2023/09/07 10:38:20;;;;;;;5.43;4.40;;;;;30.00;97578.00;;;;5062098;28;20213;-69
2023/09/07 10:41:10;;;;;;;4.13;3.07;;;;;29.30;97572.00;;;;5059626;28;20197;-69
2023/09/07 10:44:00;;;;;;;4.70;3.73;;;;;30.20;97571.00;;;;5064673;28;20209;-69
2023/09/07 10:46:49;;;;;;;4.83;3.30;;;;;30.60;97571.00;;;;5063585;28;20199;-69
2023/09/07 10:49:38;;;;;;;4.87;3.60;;;;;31.20;97579.00;;;;5061631;28;20630;-69
2023/09/07 10:52:29;;;;;;;4.27;3.60;;;;;29.60;97572.00;;;;5063834;28;20587;-69
2023/09/07 10:55:18;;;;;;;4.73;3.73;;;;;30.30;97575.00;;;;5063323;28;20229;-69
2023/09/07 10:58:08;;;;;;;3.67;3.20;;;;;30.10;97568.00;;;;5062262;28;20202;-69
2023/09/07 11:00:59;;;;;;;5.00;3.03;;;;;30.60;97559.00;;;;5066610;28;20193;-69
2023/09/07 11:03:48;;;;;;;3.77;3.47;;;;;29.80;97556.00;;;;5062215;28;20212;-69
2023/09/07 11:06:37;;;;;;;5.63;3.33;;;;;31.10;97555.00;;;;5066976;28;20209;-69
2023/09/07 11:09:26;;;;;;;4.27;3.67;;;;;32.00;97557.00;;;;5066341;28;20252;-69
2023/09/07 11:12:16;;;;;;;4.13;3.30;;;;;32.40;97559.00;;;;5065338;28;20215;-69
2023/09/07 11:15:05;;;;;;;4.18;3.78;;;;;32.20;97547.00;;;;5062601;28;20228;-70
2023/09/07 11:17:56;;;;;;;5.15;3.63;;;;;31.70;97548.00;;;;5061706;28;20215;-70
2023/09/07 11:20:45;;;;;;;3.53;3.22;;;;;32.50;97542.00;;;;5065328;28;20221;-70
2023/09/07 11:23:37;;;;;;;5.32;3.60;;;;;32.80;97547.00;;;;5064955;28;20213;-69
2023/09/07 11:26:27;;;;;;;6.75;3.92;;;;;32.90;97545.00;;;;5061169;28;20300;-69
2023/09/07 11:29:16;;;;;;;5.07;3.65;;;;;32.50;97541.00;;;;5059191;28;20231;-70
2023/09/07 11:32:09;;;;;;;5.75;3.65;;;;;32.10;97527.00;;;;5055728;28;20208;-70
2023/09/07 11:35:02;;;;;;;5.82;4.30;;;;;32.30;97528.00;;;;5061272;28;20234;-71
2023/09/07 11:37:54;;;;;;;4.50;2.85;;;;;32.10;97530.00;;;;5061968;28;20201;-69
2023/09/07 11:40:44;;;;;;;9.32;5.30;;;;;33.40;97529.00;;;;5060529;28;20201;-70
2023/09/07 11:43:33;;;;;;;4.07;3.60;;;;;33.80;97529.00;;;;5063395;28;20205;-69
2023/09/07 11:46:22;;;;;;;5.20;3.50;;;;;33.80;97527.00;;;;5062452;28;20202;-70
2023/09/07 11:49:11;;;;;;;4.47;3.50;;;;;34.20;97516.00;;;;5064111;28;20260;-70
2023/09/07 11:52:02;;;;;;;4.43;3.47;;;;;34.60;97517.00;;;;5063235;28;20214;-70
2023/09/07 11:54:51;;;;;;;3.70;3.40;;;;;34.90;97514.00;;;;5059468;28;20216;-70
2023/09/07 11:57:40;;;;;;;3.72;3.33;;;31.80;68.70;34.50;97516.00;;;;5061870;28;20208;-70
2023/09/07 12:00:31;;;;;;;5.63;3.20;;;31.80;66.70;35.10;97512.00;;;;5061626;28;20200;-72
2023/09/07 12:03:21;;;;;;;8.23;3.80;;;32.00;67.60;31.60;97516.00;;;;5059791;28;20200;-71
2023/09/07 12:06:10;;;;;;;3.78;3.40;;;31.50;62.70;33.50;97500.00;;;;5057105;28;20220;-71
2023/09/07 12:09:06;;;;;;;3.75;3.35;;;31.30;65.00;32.50;97495.00;;;;5063197;28;20207;-71
2023/09/07 12:11:55;;;;;;;6.05;3.42;;;31.00;65.60;31.60;97502.00;;;;5062658;28;20207;-70
2023/09/07 12:14:44;;;;;;;4.13;3.28;;;;;31.30;97496.00;;;;5057486;28;20221;-69
2023/09/07 12:17:33;;;;;;;5.18;3.47;;;;;31.00;97495.00;;;;5058235;28;20195;-69
2023/09/07 12:20:22;;;;;;;6.10;3.53;;;;;30.80;97497.00;;;;5059028;28;20241;-70
2023/09/07 12:23:11;;;;;;;9.43;4.18;;;;;30.40;97494.00;;;;5057512;28;20766;-69
2023/09/07 12:26:04;;;;;;;5.50;3.00;;;;;31.60;97489.00;;;;5057443;28;20231;-69
2023/09/07 12:28:53;;;;;;;4.07;3.30;;;;;31.80;97485.00;;;;5059104;28;20740;-69
2023/09/07 12:31:45;;;;;;;4.30;3.90;;;;;33.00;97491.00;;;;5064404;28;20738;-69
2023/09/07 12:34:34;;;;;;;5.05;3.35;;;;;34.10;97481.00;;;;5061849;28;20237;-70
2023/09/07 12:37:24;;;;;;;4.35;3.55;;;30.30;66.80;34.90;97476.00;;;;5061943;28;20218;-70
2023/09/07 12:40:14;;;;;;;4.97;3.70;;;30.80;66.20;34.50;97469.00;;;;5054688;28;20210;-70
2023/09/07 12:43:05;;;;;;;3.40;3.08;;;31.40;65.00;33.30;97467.00;;;;5055245;28;20709;-67
2023/09/07 12:45:54;;;;;;;4.93;3.20;;;31.50;60.70;31.00;97463.00;;;;5062327;28;20227;-69
2023/09/07 12:48:43;;;;;;;4.25;3.47;;;;;30.10;97450.00;;;;5062124;28;20206;-68
2023/09/07 12:51:32;;;;;;;7.88;4.45;;;;;31.10;97456.00;;;;5063644;28;20219;-69
2023/09/07 12:54:22;;;;;;;5.78;3.97;;;;;31.30;97453.00;;;;5059408;28;20593;-68
2023/09/07 12:57:11;;;;;;;4.53;3.45;;;;;31.30;97456.00;;;;5063436;28;20215;-68
2023/09/07 13:00:01;;;;;;;3.50;3.13;;;;;31.70;97446.00;;;;5062214;28;20218;-69
2023/09/07 13:02:50;;;;;;;3.63;3.00;;;;;31.70;97446.00;;;;5062372;28;20202;-68
2023/09/07 13:05:41;;;;;;;5.13;3.67;;;;;32.90;97449.00;;;;5059027;28;20280;-69
2023/09/07 13:08:30;;;;;;;3.80;3.20;;;;;31.50;97443.00;;;;5059613;28;20213;-69
2023/09/07 13:11:19;;;;;;;3.90;3.50;;;;;32.50;97446.00;;;;5063980;28;20220;-69
2023/09/07 13:14:08;;;;;;;4.38;3.38;;;;;32.70;97449.00;;;;5063900;28;20606;-68
2023/09/07 13:17:00;;;;;;;5.20;3.13;;;30.10;61.60;32.60;97441.00;;;;5062640;28;20242;-69
2023/09/07 13:19:49;;;;;;;3.17;2.67;;;30.40;61.40;31.80;97446.00;;;;5064320;28;20552;-69
2023/09/07 13:22:38;;;;;;;3.60;3.25;;;30.20;62.20;30.50;97433.00;;;;5065686;28;20212;-69
2023/09/07 13:25:27;;;;;;;4.78;3.50;;;29.60;62.90;33.30;97446.00;;;;5065716;28;20215;-68
2023/09/07 13:28:16;;;;;;;4.80;3.53;;;29.80;65.10;34.70;97442.00;;;;5065598;28;20233;-69
2023/09/07 13:31:05;;;;;;;4.13;3.63;;;30.40;63.10;35.60;97436.00;;;;5044910;28;20239;-69
2023/09/07 13:33:55;;;;;;;4.35;3.53;;;31.10;61.60;34.90;97426.00;;;;5044155;28;20684;-69
2023/09/07 13:36:44;;;;;;;4.85;4.00;;;31.70;59.80;34.10;97426.00;;;;5049168;28;20199;-69
2023/09/07 13:39:33;;;;;;;5.72;3.13;;;31.70;58.40;34.10;97430.00;;;;5045685;28;20571;-69
2023/09/07 13:42:21;;;;;;;4.97;3.25;;;31.80;58.70;33.60;97426.00;;;;5043713;28;20204;-69
2023/09/07 13:45:11;;;;;;;6.93;3.92;;;31.80;58.30;34.70;97432.00;;;;5041290;28;20225;-69
2023/09/07 13:48:00;;;;;;;4.00;3.60;;;31.90;58.10;33.80;97428.00;;;;5048589;28;20220;-69
2023/09/07 13:50:50;;;;;;;3.65;3.08;;;32.10;56.90;35.80;97427.00;;;;5046937;28;20220;-69
2023/09/07 13:53:39;;;;;;;7.40;3.25;;;32.20;56.60;36.50;97423.00;;;;5042996;28;20185;-69
2023/09/07 13:56:28;;;;;;;4.43;3.45;;;32.60;58.20;36.90;97434.00;;;;5042322;28;20208;-69
2023/09/07 13:59:16;;;;;;;6.22;2.97;;;33.10;58.00;37.50;97421.00;;;;5044758;28;20215;-69